Terminal Aerodrome Forecast
Issued by NWS

Home | Current Version | Previous Version | Text Only | Print | Product List | Glossary On
Versions: 1 2 3 4 5 6 7 8 9 10 11 12 13 14 15
000
FTUS41 KCAR 271746
TAFBHB
TAF
KBHB 271746Z 2718/2818 18020G30KT P6SM BKN250 WS020/23040KT
     FM280200 21010G20KT 3SM BR OVC200
     FM280400 22011KT 2SM BR OVC006
     FM280700 21010KT 1SM BR OVC002
     FM281200 21012KT 3SM BR OVC003
     FM281500 21015G25KT P6SM OVC007
      AMD LTD TO CLD VIS AND WIND=

USA.gov is the U.S. government's official web portal to all federal, state and local government web resources and services.